Wetterdaten: Woche 13.12.10 - 19.12.10 (KW50)
Datum Zeit Temp. Innen Temp. Aussen UV X Diff Temp. Feuchte Inne Feuchte Auss Sonnenschein Luftdruck Regen ab 0,1 Wind Sonnenschein T Regendauer Windben
13.12.2010 00:00 10,5 C -0,7 C 0,0 UV-I 0,0 C 45 % 75 % 0 % 1024,3 hPa 0,0 l/m 10,4 km/h (2 Bft) 0,00 h 0,13 h 10,6 km/h (2 Bft)
13.12.2010 01:00 10,4 C -1,4 C 0,0 UV-I 0,0 C 45 % 78 % 0 % 1024,7 hPa 0,0 l/m 9,6 km/h (2 Bft) 0,00 h 0,13 h 9,5 km/h (2 Bft)
13.12.2010 02:00 10,2 C -2,2 C 0,0 UV-I 0,0 C 45 % 81 % 0 % 1024,7 hPa 0,0 l/m 4,9 km/h (1 Bft) 0,00 h 0,17 h 4,6 km/h (1 Bft)
13.12.2010 03:00 10,0 C -3,0 C 0,0 UV-I 0,0 C 45 % 82 % 0 % 1024,7 hPa 0,0 l/m 0,4 km/h (0 Bft) 0,00 h 0,17 h 0,2 km/h (0 Bft)
13.12.2010 04:00 9,9 C -3,6 C 0,0 UV-I 0,0 C 45 % 84 % 0 % 1025,4 hPa 0,0 l/m 0,2 km/h (0 Bft) 0,00 h 0,13 h 0,6 km/h (0 Bft)
13.12.2010 05:00 9,7 C -4,0 C 0,0 UV-I 0,0 C 45 % 85 % 0 % 1025,7 hPa 0,0 l/m 0,2 km/h (0 Bft) 0,00 h 0,10 h 0,1 km/h (0 Bft)
13.12.2010 06:00 9,6 C -4,7 C 0,0 UV-I 0,0 C 45 % 86 % 0 % 1026,2 hPa 0,0 l/m 0,0 km/h (0 Bft) 0,00 h 0,20 h 0,0 km/h (0 Bft)
13.12.2010 07:00 9,4 C -5,1 C 0,0 UV-I 0,0 C 45 % 87 % 0 % 1026,2 hPa 0,0 l/m 0,0 km/h (0 Bft) 0,00 h 0,10 h 0,0 km/h (0 Bft)
13.12.2010 08:00 9,4 C -4,9 C 0,0 UV-I 0,0 C 45 % 89 % 0 % 1026,2 hPa 0,0 l/m 0,0 km/h (0 Bft) 0,00 h 0,20 h 0,0 km/h (0 Bft)
13.12.2010 09:00 9,6 C -4,0 C 0,0 UV-I 0,0 C 46 % 90 % 0 % 1026,7 hPa 0,0 l/m 0,1 km/h (0 Bft) 0,00 h 0,13 h 0,2 km/h (0 Bft)
13.12.2010 10:00 9,9 C -3,2 C 0,0 UV-I 0,0 C 46 % 89 % 0 % 1027,3 hPa 0,0 l/m 0,0 km/h (0 Bft) 0,00 h 0,00 h 0,1 km/h (0 Bft)
13.12.2010 11:00 10,1 C -2,5 C 0,0 UV-I 0,0 C 45 % 88 % 0 % 1027,2 hPa 0,0 l/m 0,5 km/h (0 Bft) 0,00 h 0,73 h 0,7 km/h (0 Bft)
13.12.2010 12:00 10,2 C -1,9 C 0,0 UV-I 0,0 C 44 % 85 % 1 % 1027,1 hPa 0,0 l/m 1,1 km/h (0 Bft) 0,00 h 1,00 h 1,0 km/h (0 Bft)
13.12.2010 13:00 10,4 C -1,6 C 0,0 UV-I 0,3 C 43 % 82 % 9 % 1026,5 hPa 0,0 l/m 1,9 km/h (1 Bft) 0,00 h 1,00 h 2,3 km/h (1 Bft)
13.12.2010 14:00 10,7 C -1,6 C 0,0 UV-I 0,1 C 43 % 80 % 3 % 1026,1 hPa 0,0 l/m 1,9 km/h (1 Bft) 0,00 h 1,00 h 2,3 km/h (1 Bft)
13.12.2010 15:00 10,5 C -1,8 C 0,0 UV-I 0,0 C 43 % 80 % 0 % 1025,4 hPa 0,0 l/m 1,4 km/h (1 Bft) 0,00 h 1,00 h 2,5 km/h (1 Bft)
13.12.2010 16:00 10,3 C -2,1 C 0,0 UV-I 0,0 C 43 % 81 % 0 % 1024,7 hPa 0,0 l/m 1,0 km/h (0 Bft) 0,00 h 1,00 h 1,4 km/h (1 Bft)
13.12.2010 17:00 10,0 C -2,2 C 0,0 UV-I 0,0 C 43 % 82 % 0 % 1024,5 hPa 0,0 l/m 1,7 km/h (1 Bft) 0,00 h 1,00 h 2,2 km/h (1 Bft)
13.12.2010 18:00 9,8 C -2,1 C 0,0 UV-I 0,0 C 43 % 83 % 0 % 1023,4 hPa 0,0 l/m 4,5 km/h (1 Bft) 0,00 h 1,00 h 4,6 km/h (1 Bft)
13.12.2010 19:00 9,6 C -2,0 C 0,0 UV-I 0,0 C 44 % 84 % 0 % 1022,8 hPa 0,0 l/m 5,3 km/h (1 Bft) 0,00 h 1,00 h 5,7 km/h (1 Bft)
13.12.2010 20:00 9,6 C -2,5 C 0,0 UV-I 0,0 C 45 % 89 % 0 % 1021,7 hPa 0,0 l/m 4,7 km/h (1 Bft) 0,00 h 1,00 h 5,5 km/h (1 Bft)
13.12.2010 21:00 9,6 C -2,5 C 0,0 UV-I 0,0 C 46 % 91 % 0 % 1021,6 hPa 0,0 l/m 1,4 km/h (1 Bft) 0,00 h 1,00 h 1,7 km/h (1 Bft)
13.12.2010 22:00 9,7 C -2,2 C 0,0 UV-I 0,0 C 46 % 91 % 0 % 1021,8 hPa 0,0 l/m 0,0 km/h (0 Bft) 0,00 h 1,00 h 0,0 km/h (0 Bft)
13.12.2010 23:00 9,9 C -1,8 C 0,0 UV-I 0,0 C 47 % 91 % 0 % 1022,0 hPa 0,0 l/m 0,0 km/h (0 Bft) 0,00 h 1,00 h 0,0 km/h (0 Bft)
14.12.2010 00:00 9,9 C -1,3 C 0,0 UV-I 0,0 C 47 % 92 % 0 % 1022,4 hPa 0,0 l/m 2,3 km/h (1 Bft) 0,00 h 1,00 h 3,4 km/h (1 Bft)
14.12.2010 01:00 10,1 C -0,7 C 0,0 UV-I 0,0 C 48 % 92 % 0 % 1023,1 hPa 0,0 l/m 10,5 km/h (2 Bft) 0,00 h 1,00 h 10,4 km/h (2 Bft)
14.12.2010 02:00 10,2 C -0,7 C 0,0 UV-I 0,0 C 49 % 90 % 0 % 1023,8 hPa 0,0 l/m 8,9 km/h (2 Bft) 0,00 h 1,00 h 9,5 km/h (2 Bft)
14.12.2010 03:00 10,2 C -0,9 C 0,0 UV-I 0,0 C 48 % 89 % 0 % 1024,4 hPa 0,0 l/m 8,0 km/h (2 Bft) 0,00 h 1,00 h 8,5 km/h (2 Bft)
14.12.2010 04:00 10,3 C -1,0 C 0,0 UV-I 0,0 C 48 % 88 % 0 % 1025,1 hPa 0,0 l/m 7,0 km/h (2 Bft) 0,00 h 1,00 h 7,1 km/h (2 Bft)
14.12.2010 05:00 10,3 C -1,3 C 0,0 UV-I 0,0 C 48 % 86 % 0 % 1025,4 hPa 0,0 l/m 10,3 km/h (2 Bft) 0,00 h 1,00 h 10,9 km/h (2 Bft)
14.12.2010 06:00 10,2 C -2,0 C 0,0 UV-I 0,0 C 47 % 85 % 0 % 1025,4 hPa 0,0 l/m 11,5 km/h (2 Bft) 0,00 h 1,00 h 11,5 km/h (2 Bft)
14.12.2010 07:00 10,0 C -3,9 C 0,0 UV-I 0,0 C 46 % 87 % 0 % 1027,4 hPa 0,0 l/m 8,5 km/h (2 Bft) 0,00 h 0,93 h 8,4 km/h (2 Bft)
14.12.2010 08:00 9,6 C -5,3 C 0,0 UV-I 0,0 C 45 % 89 % 0 % 1027,8 hPa 0,0 l/m 5,4 km/h (1 Bft) 0,00 h 1,00 h 4,7 km/h (1 Bft)
14.12.2010 09:00 9,3 C -5,9 C 0,0 UV-I 0,2 C 45 % 90 % 6 % 1028,9 hPa 0,0 l/m 0,4 km/h (0 Bft) 0,07 h 1,00 h 0,7 km/h (0 Bft)
14.12.2010 10:00 9,2 C -5,0 C 0,0 UV-I 0,0 C 44 % 90 % 1 % 1029,0 hPa 0,0 l/m 3,4 km/h (1 Bft) 0,00 h 1,00 h 3,5 km/h (1 Bft)
14.12.2010 11:00 9,4 C -3,7 C 0,0 UV-I 1,4 C 44 % 90 % 34 % 1029,0 hPa 0,0 l/m 3,6 km/h (1 Bft) 0,30 h 1,00 h 4,6 km/h (1 Bft)
14.12.2010 12:00 9,7 C -2,8 C 0,0 UV-I 0,3 C 44 % 89 % 8 % 1030,3 hPa 0,0 l/m 7,3 km/h (2 Bft) 0,00 h 1,00 h 7,6 km/h (2 Bft)
14.12.2010 13:00 9,8 C -2,2 C 0,0 UV-I 0,2 C 44 % 89 % 5 % 1030,5 hPa 0,0 l/m 6,3 km/h (2 Bft) 0,00 h 1,00 h 6,6 km/h (2 Bft)
14.12.2010 14:00 9,9 C -2,0 C 0,0 UV-I 0,0 C 44 % 89 % 0 % 1030,5 hPa 0,0 l/m 9,9 km/h (2 Bft) 0,00 h 1,00 h 11,2 km/h (2 Bft)
14.12.2010 15:00 9,8 C -1,8 C 0,0 UV-I 0,0 C 45 % 89 % 0 % 1030,5 hPa 0,0 l/m 11,5 km/h (2 Bft) 0,00 h 1,00 h 10,8 km/h (2 Bft)
14.12.2010 16:00 9,6 C -1,9 C 0,0 UV-I 0,0 C 45 % 89 % 0 % 1031,3 hPa 0,0 l/m 5,8 km/h (2 Bft) 0,00 h 1,00 h 5,7 km/h (1 Bft)
14.12.2010 17:00 9,6 C -1,7 C 0,0 UV-I 0,0 C 45 % 88 % 0 % 1031,3 hPa 0,0 l/m 8,3 km/h (2 Bft) 0,00 h 1,00 h 8,6 km/h (2 Bft)
14.12.2010 18:00 9,6 C -1,7 C 0,0 UV-I 0,0 C 45 % 82 % 0 % 1031,3 hPa 0,0 l/m 7,8 km/h (2 Bft) 0,00 h 1,00 h 6,9 km/h (2 Bft)
14.12.2010 19:00 9,5 C -1,7 C 0,0 UV-I 0,0 C 44 % 81 % 0 % 1031,5 hPa 0,0 l/m 2,5 km/h (1 Bft) 0,00 h 1,00 h 3,0 km/h (1 Bft)
14.12.2010 20:00 9,4 C -1,7 C 0,0 UV-I 0,0 C 44 % 80 % 0 % 1032,1 hPa 0,0 l/m 5,2 km/h (1 Bft) 0,00 h 0,33 h 6,1 km/h (2 Bft)
14.12.2010 21:00 9,5 C -1,6 C 0,0 UV-I 0,0 C 43 % 79 % 0 % 1032,1 hPa 0,0 l/m 5,7 km/h (1 Bft) 0,00 h 0,00 h 5,4 km/h (1 Bft)
14.12.2010 22:00 9,4 C -1,7 C 0,0 UV-I 0,0 C 43 % 80 % 0 % 1032,7 hPa 0,0 l/m 0,4 km/h (0 Bft) 0,00 h 0,00 h 0,5 km/h (0 Bft)
14.12.2010 23:00 9,4 C -1,7 C 0,0 UV-I 0,0 C 43 % 82 % 0 % 1033,1 hPa 0,0 l/m 0,6 km/h (0 Bft) 0,00 h 0,00 h 1,3 km/h (1 Bft)
15.12.2010 00:00 9,5 C -1,8 C 0,0 UV-I 0,0 C 43 % 82 % 0 % 1033,1 hPa 0,0 l/m 1,0 km/h (0 Bft) 0,00 h 0,00 h 1,3 km/h (1 Bft)
15.12.2010 01:00 9,3 C -2,6 C 0,0 UV-I 0,0 C 43 % 82 % 0 % 1033,1 hPa 0,0 l/m 0,2 km/h (0 Bft) 0,00 h 0,00 h 0,1 km/h (0 Bft)
15.12.2010 02:00 9,2 C -3,3 C 0,0 UV-I 0,0 C 43 % 85 % 0 % 1033,1 hPa 0,0 l/m 0,5 km/h (0 Bft) 0,00 h 0,00 h 1,1 km/h (0 Bft)
15.12.2010 03:00 9,2 C -3,8 C 0,0 UV-I 0,0 C 44 % 87 % 0 % 1033,1 hPa 0,0 l/m 0,7 km/h (0 Bft) 0,00 h 0,00 h 1,6 km/h (1 Bft)
15.12.2010 04:00 9,1 C -3,1 C 0,0 UV-I 0,0 C 44 % 88 % 0 % 1033,1 hPa 0,0 l/m 1,9 km/h (1 Bft) 0,00 h 0,00 h 3,0 km/h (1 Bft)
15.12.2010 05:00 9,1 C -2,3 C 0,0 UV-I 0,0 C 44 % 88 % 0 % 1033,1 hPa 0,0 l/m 2,3 km/h (1 Bft) 0,00 h 0,00 h 3,6 km/h (1 Bft)
15.12.2010 06:00 9,2 C -1,9 C 0,0 UV-I 0,0 C 45 % 89 % 0 % 1033,1 hPa 0,0 l/m 3,0 km/h (1 Bft) 0,00 h 0,00 h 3,7 km/h (1 Bft)
15.12.2010 07:00 9,2 C -1,2 C 0,0 UV-I 0,0 C 46 % 90 % 0 % 1033,1 hPa 0,0 l/m 1,9 km/h (1 Bft) 0,00 h 0,33 h 2,8 km/h (1 Bft)
15.12.2010 08:00 9,2 C -0,4 C 0,0 UV-I 0,0 C 47 % 92 % 0 % 1029,8 hPa 0,0 l/m 3,0 km/h (1 Bft) 0,00 h 0,10 h 4,0 km/h (1 Bft)
15.12.2010 09:00 9,4 C 0,2 C 0,0 UV-I 0,0 C 48 % 93 % 0 % 1029,3 hPa 0,0 l/m 2,1 km/h (1 Bft) 0,00 h 0,00 h 2,9 km/h (1 Bft)
15.12.2010 10:00 9,6 C 0,8 C 0,0 UV-I 0,0 C 49 % 93 % 0 % 1029,1 hPa 0,0 l/m 3,4 km/h (1 Bft) 0,00 h 0,00 h 5,2 km/h (1 Bft)
15.12.2010 11:00 9,8 C 1,3 C 0,0 UV-I 0,0 C 49 % 89 % 0 % 1029,0 hPa 0,0 l/m 14,3 km/h (3 Bft) 0,00 h 0,00 h 14,9 km/h (3 Bft)
15.12.2010 12:00 10,0 C 1,4 C 0,0 UV-I 0,0 C 48 % 85 % 0 % 1028,5 hPa 0,2 l/m 11,6 km/h (2 Bft) 0,00 h 0,00 h 11,2 km/h (2 Bft)
15.12.2010 13:00 10,3 C 1,4 C 0,2 UV-I 0,2 C 47 % 80 % 5 % 1028,2 hPa 0,1 l/m 10,6 km/h (2 Bft) 0,00 h 0,00 h 10,7 km/h (2 Bft)
15.12.2010 14:00 10,9 C 1,5 C 0,1 UV-I 2,0 C 46 % 79 % 56 % 1028,6 hPa 0,0 l/m 12,1 km/h (2 Bft) 0,57 h 0,00 h 13,2 km/h (3 Bft)
15.12.2010 15:00 10,9 C 0,8 C 0,0 UV-I 0,0 C 44 % 80 % 0 % 1028,2 hPa 0,0 l/m 10,7 km/h (2 Bft) 0,00 h 0,00 h 11,8 km/h (2 Bft)
15.12.2010 16:00 10,4 C -0,1 C 0,0 UV-I 0,0 C 44 % 81 % 0 % 1027,9 hPa 0,0 l/m 5,6 km/h (1 Bft) 0,00 h 0,00 h 5,4 km/h (1 Bft)
15.12.2010 17:00 10,0 C -1,3 C 0,0 UV-I 0,0 C 45 % 83 % 0 % 1027,3 hPa 0,0 l/m 0,4 km/h (0 Bft) 0,00 h 0,00 h 0,3 km/h (0 Bft)
15.12.2010 18:00 9,7 C -2,5 C 0,0 UV-I 0,0 C 45 % 85 % 0 % 1026,9 hPa 0,0 l/m 0,0 km/h (0 Bft) 0,00 h 0,00 h 0,0 km/h (0 Bft)
15.12.2010 19:00 9,5 C -2,8 C 0,0 UV-I 0,0 C 45 % 87 % 0 % 1026,6 hPa 0,0 l/m 0,0 km/h (0 Bft) 0,00 h 0,00 h 0,0 km/h (0 Bft)
15.12.2010 20:00 9,3 C -3,4 C 0,0 UV-I 0,0 C 45 % 88 % 0 % 1026,9 hPa 0,0 l/m 0,0 km/h (0 Bft) 0,00 h 0,00 h 0,0 km/h (0 Bft)
15.12.2010 21:00 9,0 C -4,0 C 0,0 UV-I 0,0 C 45 % 89 % 0 % 1026,9 hPa 0,0 l/m 0,0 km/h (0 Bft) 0,00 h 0,07 h 0,0 km/h (0 Bft)
15.12.2010 22:00 8,6 C -4,5 C 0,0 UV-I 0,0 C 44 % 89 % 0 % 1026,9 hPa 0,0 l/m 0,0 km/h (0 Bft) 0,00 h 0,20 h 0,0 km/h (0 Bft)
15.12.2010 23:00 8,3 C -4,6 C 0,0 UV-I 0,0 C 45 % 91 % 0 % 1026,9 hPa 0,0 l/m 0,0 km/h (0 Bft) 0,00 h 0,13 h 0,0 km/h (0 Bft)
16.12.2010 00:00 8,3 C -5,2 C 0,0 UV-I 0,0 C 45 % 90 % 0 % 1023,7 hPa 0,0 l/m 0,0 km/h (0 Bft) 0,00 h 0,03 h 0,0 km/h (0 Bft)
16.12.2010 01:00 8,4 C -5,7 C 0,0 UV-I 0,0 C 44 % 91 % 0 % 1023,3 hPa 0,0 l/m 0,0 km/h (0 Bft) 0,00 h 0,10 h 0,0 km/h (0 Bft)
16.12.2010 02:00 8,3 C -5,4 C 0,0 UV-I 0,0 C 44 % 92 % 0 % 1023,0 hPa 0,0 l/m 0,0 km/h (0 Bft) 0,00 h 0,07 h 0,0 km/h (0 Bft)
16.12.2010 03:00 8,5 C -4,0 C 0,0 UV-I 0,0 C 45 % 93 % 0 % 1021,4 hPa 0,0 l/m 0,1 km/h (0 Bft) 0,00 h 0,03 h 0,3 km/h (0 Bft)
16.12.2010 04:00 8,7 C -2,6 C 0,0 UV-I 0,0 C 46 % 93 % 0 % 1020,1 hPa 0,0 l/m 1,5 km/h (1 Bft) 0,00 h 0,03 h 2,6 km/h (1 Bft)
16.12.2010 05:00 8,8 C -2,2 C 0,0 UV-I 0,0 C 46 % 92 % 0 % 1019,4 hPa 0,0 l/m 3,7 km/h (1 Bft) 0,00 h 0,00 h 5,0 km/h (1 Bft)
16.12.2010 06:00 8,8 C -1,7 C 0,0 UV-I 0,0 C 46 % 91 % 0 % 1017,0 hPa 0,0 l/m 4,6 km/h (1 Bft) 0,00 h 0,00 h 7,3 km/h (2 Bft)
16.12.2010 07:00 8,5 C -0,9 C 0,0 UV-I 0,0 C 46 % 90 % 0 % 1015,4 hPa 0,0 l/m 6,0 km/h (2 Bft) 0,00 h 0,00 h 7,2 km/h (2 Bft)
16.12.2010 08:00 8,2 C -0,2 C 0,0 UV-I 0,0 C 48 % 91 % 0 % 1014,0 hPa 0,0 l/m 5,3 km/h (1 Bft) 0,00 h 0,00 h 6,1 km/h (2 Bft)
16.12.2010 09:00 8,2 C 0,3 C 0,0 UV-I 0,0 C 50 % 91 % 0 % 1013,6 hPa 0,0 l/m 5,8 km/h (2 Bft) 0,00 h 0,00 h 6,4 km/h (2 Bft)
16.12.2010 10:00 8,2 C 0,8 C 0,0 UV-I 0,0 C 52 % 92 % 0 % 1010,7 hPa 0,0 l/m 8,6 km/h (2 Bft) 0,00 h 0,87 h 11,7 km/h (2 Bft)
16.12.2010 11:00 8,3 C 1,2 C 0,0 UV-I 0,0 C 54 % 92 % 0 % 1009,6 hPa 0,0 l/m 8,2 km/h (2 Bft) 0,00 h 0,77 h 7,9 km/h (2 Bft)
16.12.2010 12:00 8,3 C 1,5 C 0,0 UV-I 0,0 C 55 % 92 % 0 % 1006,3 hPa 0,3 l/m 9,0 km/h (2 Bft) 0,00 h 0,83 h 10,7 km/h (2 Bft)
16.12.2010 13:00 8,4 C 1,4 C 0,0 UV-I 0,0 C 55 % 93 % 0 % 1003,5 hPa 0,6 l/m 9,5 km/h (2 Bft) 0,00 h 1,00 h 11,7 km/h (2 Bft)
16.12.2010 14:00 8,3 C 1,5 C 0,0 UV-I 0,0 C 56 % 93 % 0 % 1001,8 hPa 0,9 l/m 10,1 km/h (2 Bft) 0,00 h 0,95 h 12,1 km/h (2 Bft)
16.12.2010 15:00 8,3 C 1,5 C 0,0 UV-I 0,0 C 57 % 93 % 0 % 1000,1 hPa 1,0 l/m 10,5 km/h (2 Bft) 0,00 h 1,00 h 12,4 km/h (3 Bft)
16.12.2010 16:00 8,2 C 1,5 C 0,0 UV-I 0,0 C 57 % 94 % 0 % 997,7 hPa 0,7 l/m 10,8 km/h (2 Bft) 0,00 h 1,00 h 12,3 km/h (3 Bft)
16.12.2010 17:00 8,2 C 1,8 C 0,0 UV-I 0,0 C 58 % 93 % 0 % 995,6 hPa 0,7 l/m 11,5 km/h (2 Bft) 0,00 h 1,00 h 13,7 km/h (3 Bft)
16.12.2010 18:00 8,2 C 1,6 C 0,0 UV-I 0,0 C 58 % 93 % 0 % 994,8 hPa 0,5 l/m 9,0 km/h (2 Bft) 0,00 h 1,00 h 9,7 km/h (2 Bft)
16.12.2010 19:00 8,3 C 0,5 C 0,0 UV-I 0,0 C 57 % 94 % 0 % 995,8 hPa 0,0 l/m 14,9 km/h (3 Bft) 0,00 h 1,00 h 15,4 km/h (3 Bft)
16.12.2010 20:00 8,7 C 0,1 C 0,0 UV-I 0,0 C 56 % 95 % 0 % 995,9 hPa 0,0 l/m 3,9 km/h (1 Bft) 0,00 h 1,00 h 4,2 km/h (1 Bft)
16.12.2010 21:00 8,7 C 0,0 C 0,0 UV-I 0,0 C 56 % 95 % 0 % 995,8 hPa 0,0 l/m 1,2 km/h (1 Bft) 0,00 h 1,00 h 1,3 km/h (1 Bft)
16.12.2010 22:00 8,7 C -0,3 C 0,0 UV-I 0,0 C 55 % 95 % 0 % 995,8 hPa 0,0 l/m 2,1 km/h (1 Bft) 0,00 h 1,00 h 3,1 km/h (1 Bft)
16.12.2010 23:00 8,7 C -0,6 C 0,0 UV-I 0,0 C 55 % 95 % 0 % 995,8 hPa 0,0 l/m 1,6 km/h (1 Bft) 0,00 h 1,00 h 1,3 km/h (1 Bft)
17.12.2010 00:00 8,7 C -1,1 C 0,0 UV-I 0,0 C 54 % 95 % 0 % 995,6 hPa 0,0 l/m 1,3 km/h (1 Bft) 0,00 h 1,00 h 3,1 km/h (1 Bft)
17.12.2010 01:00 8,8 C -1,3 C 0,0 UV-I 0,0 C 54 % 95 % 0 % 995,4 hPa 0,0 l/m 0,7 km/h (0 Bft) 0,00 h 1,00 h 0,9 km/h (0 Bft)
17.12.2010 02:00 8,8 C -2,2 C 0,0 UV-I 0,0 C 53 % 94 % 0 % 995,1 hPa 0,0 l/m 0,0 km/h (0 Bft) 0,00 h 1,00 h 0,0 km/h (0 Bft)
17.12.2010 03:00 8,8 C -1,7 C 0,0 UV-I 0,0 C 53 % 95 % 0 % 995,1 hPa 0,0 l/m 1,2 km/h (1 Bft) 0,00 h 1,00 h 2,4 km/h (1 Bft)
17.12.2010 04:00 9,0 C -1,6 C 0,0 UV-I 0,0 C 52 % 95 % 0 % 995,1 hPa 0,0 l/m 0,4 km/h (0 Bft) 0,00 h 1,00 h 0,4 km/h (0 Bft)
17.12.2010 05:00 8,9 C -1,8 C 0,0 UV-I 0,0 C 52 % 95 % 0 % 995,0 hPa 0,0 l/m 0,6 km/h (0 Bft) 0,00 h 1,00 h 0,6 km/h (0 Bft)
17.12.2010 06:00 9,0 C -1,9 C 0,0 UV-I 0,0 C 51 % 95 % 0 % 995,1 hPa 0,0 l/m 0,4 km/h (0 Bft) 0,00 h 1,00 h 0,9 km/h (0 Bft)
17.12.2010 07:00 9,0 C -2,1 C 0,0 UV-I 0,0 C 51 % 94 % 0 % 994,7 hPa 0,0 l/m 0,8 km/h (0 Bft) 0,00 h 1,00 h 1,9 km/h (1 Bft)
17.12.2010 08:00 8,9 C -2,1 C 0,0 UV-I 0,0 C 50 % 94 % 0 % 995,0 hPa 0,0 l/m 0,7 km/h (0 Bft) 0,00 h 1,00 h 0,7 km/h (0 Bft)
17.12.2010 09:00 8,8 C -1,9 C 0,0 UV-I 0,0 C 50 % 94 % 0 % 995,0 hPa 0,0 l/m 0,8 km/h (0 Bft) 0,00 h 1,00 h 1,0 km/h (0 Bft)
17.12.2010 10:00 9,0 C -1,4 C 0,0 UV-I 0,0 C 50 % 94 % 0 % 995,2 hPa 0,0 l/m 1,1 km/h (1 Bft) 0,00 h 1,00 h 1,8 km/h (1 Bft)
17.12.2010 11:00 9,2 C -0,8 C 0,0 UV-I 0,3 C 50 % 94 % 8 % 995,0 hPa 0,0 l/m 0,3 km/h (0 Bft) 0,00 h 1,00 h 0,7 km/h (0 Bft)
17.12.2010 12:00 9,4 C -0,4 C 0,0 UV-I 0,1 C 50 % 94 % 2 % 994,9 hPa 0,0 l/m 1,0 km/h (0 Bft) 0,00 h 1,00 h 1,7 km/h (1 Bft)
17.12.2010 13:00 9,4 C -0,5 C 0,0 UV-I 0,0 C 51 % 94 % 0 % 994,6 hPa 0,0 l/m 0,3 km/h (0 Bft) 0,00 h 1,00 h 0,4 km/h (0 Bft)
17.12.2010 14:00 9,4 C -0,3 C 0,0 UV-I 0,0 C 50 % 93 % 0 % 994,5 hPa 0,0 l/m 1,7 km/h (1 Bft) 0,00 h 0,93 h 2,2 km/h (1 Bft)
17.12.2010 15:00 9,2 C -0,5 C 0,0 UV-I 0,0 C 50 % 92 % 0 % 994,8 hPa 0,0 l/m 1,6 km/h (1 Bft) 0,00 h 0,73 h 2,8 km/h (1 Bft)
17.12.2010 16:00 9,2 C -0,9 C 0,0 UV-I 0,0 C 49 % 92 % 0 % 995,1 hPa 0,0 l/m 1,3 km/h (1 Bft) 0,00 h 0,00 h 1,7 km/h (1 Bft)
17.12.2010 17:00 9,0 C -1,7 C 0,0 UV-I 0,0 C 48 % 92 % 0 % 995,1 hPa 0,0 l/m 1,4 km/h (1 Bft) 0,00 h 0,00 h 2,6 km/h (1 Bft)
17.12.2010 18:00 8,1 C -2,5 C 0,0 UV-I 0,0 C 47 % 91 % 0 % 995,1 hPa 0,0 l/m 1,5 km/h (1 Bft) 0,00 h 0,00 h 1,9 km/h (1 Bft)
17.12.2010 19:00 7,6 C -3,1 C 0,0 UV-I 0,0 C 47 % 91 % 0 % 995,0 hPa 0,0 l/m 1,2 km/h (1 Bft) 0,00 h 0,00 h 2,5 km/h (1 Bft)
17.12.2010 20:00 7,3 C -3,5 C 0,0 UV-I 0,0 C 47 % 91 % 0 % 995,1 hPa 0,0 l/m 0,9 km/h (0 Bft) 0,00 h 0,00 h 1,5 km/h (1 Bft)
17.12.2010 21:00 7,5 C -3,9 C 0,0 UV-I 0,0 C 47 % 91 % 0 % 995,7 hPa 0,0 l/m 0,5 km/h (0 Bft) 0,00 h 0,00 h 1,1 km/h (1 Bft)
17.12.2010 22:00 7,6 C -4,2 C 0,0 UV-I 0,0 C 47 % 91 % 0 % 995,9 hPa 0,0 l/m 0,4 km/h (0 Bft) 0,00 h 0,00 h 0,9 km/h (0 Bft)
17.12.2010 23:00 7,8 C -4,8 C 0,0 UV-I 0,0 C 46 % 91 % 0 % 995,7 hPa 0,0 l/m 1,2 km/h (1 Bft) 0,00 h 0,00 h 2,4 km/h (1 Bft)
18.12.2010 00:00 7,7 C -5,4 C 0,0 UV-I 0,0 C 46 % 91 % 0 % 995,8 hPa 0,0 l/m 1,4 km/h (1 Bft) 0,00 h 0,00 h 2,1 km/h (1 Bft)
18.12.2010 01:00 7,6 C -5,8 C 0,0 UV-I 0,0 C 45 % 91 % 0 % 995,8 hPa 0,0 l/m 3,1 km/h (1 Bft) 0,00 h 0,00 h 4,5 km/h (1 Bft)
18.12.2010 02:00 7,6 C -6,3 C 0,0 UV-I 0,0 C 45 % 91 % 0 % 995,6 hPa 0,0 l/m 2,4 km/h (1 Bft) 0,00 h 0,00 h 2,3 km/h (1 Bft)
18.12.2010 03:00 7,4 C -7,2 C 0,0 UV-I 0,0 C 44 % 91 % 0 % 995,7 hPa 0,0 l/m 2,1 km/h (1 Bft) 0,00 h 0,00 h 3,3 km/h (1 Bft)
18.12.2010 04:00 7,4 C -7,1 C 0,0 UV-I 0,0 C 44 % 91 % 0 % 995,4 hPa 0,0 l/m 1,4 km/h (1 Bft) 0,00 h 0,00 h 2,3 km/h (1 Bft)
18.12.2010 05:00 7,3 C -6,8 C 0,0 UV-I 0,0 C 44 % 92 % 0 % 995,6 hPa 0,0 l/m 0,7 km/h (0 Bft) 0,00 h 0,00 h 1,2 km/h (1 Bft)
18.12.2010 06:00 7,2 C -6,3 C 0,0 UV-I 0,0 C 44 % 93 % 0 % 995,9 hPa 0,0 l/m 0,3 km/h (0 Bft) 0,00 h 0,00 h 0,5 km/h (0 Bft)
18.12.2010 07:00 7,4 C -5,0 C 0,0 UV-I 0,0 C 45 % 93 % 0 % 996,2 hPa 0,0 l/m 1,5 km/h (1 Bft) 0,00 h 0,00 h 2,3 km/h (1 Bft)
18.12.2010 08:00 7,6 C -4,5 C 0,0 UV-I 0,0 C 45 % 93 % 0 % 996,6 hPa 0,0 l/m 0,3 km/h (0 Bft) 0,00 h 0,17 h 0,3 km/h (0 Bft)
18.12.2010 09:00 7,6 C -4,3 C 0,0 UV-I 0,0 C 45 % 93 % 0 % 997,0 hPa 0,0 l/m 0,9 km/h (0 Bft) 0,00 h 0,00 h 1,4 km/h (1 Bft)
18.12.2010 10:00 7,8 C -3,6 C 0,0 UV-I 0,0 C 46 % 93 % 0 % 997,9 hPa 0,0 l/m 1,7 km/h (1 Bft) 0,00 h 0,17 h 2,7 km/h (1 Bft)
18.12.2010 11:00 7,9 C -3,2 C 0,0 UV-I 0,0 C 46 % 93 % 0 % 998,2 hPa 0,0 l/m 1,6 km/h (1 Bft) 0,00 h 0,35 h 2,5 km/h (1 Bft)
18.12.2010 12:00 8,0 C -2,6 C 0,0 UV-I 0,1 C 46 % 92 % 3 % 998,4 hPa 0,0 l/m 1,7 km/h (1 Bft) 0,00 h 0,17 h 2,5 km/h (1 Bft)
18.12.2010 13:00 8,3 C -2,3 C 0,0 UV-I 0,0 C 46 % 92 % 0 % 998,4 hPa 0,0 l/m 2,1 km/h (1 Bft) 0,00 h 0,07 h 3,0 km/h (1 Bft)
18.12.2010 14:00 8,3 C -2,3 C 0,0 UV-I 0,0 C 46 % 91 % 0 % 998,6 hPa 0,0 l/m 3,1 km/h (1 Bft) 0,00 h 0,00 h 4,4 km/h (1 Bft)
18.12.2010 15:00 8,4 C -2,7 C 0,0 UV-I 0,0 C 45 % 90 % 0 % 998,7 hPa 0,0 l/m 4,4 km/h (1 Bft) 0,00 h 0,07 h 5,9 km/h (2 Bft)
18.12.2010 16:00 8,3 C -3,8 C 0,0 UV-I 0,0 C 45 % 90 % 0 % 998,8 hPa 0,0 l/m 2,2 km/h (1 Bft) 0,00 h 0,20 h 2,6 km/h (1 Bft)
18.12.2010 17:00 8,0 C -4,9 C 0,0 UV-I 0,0 C 44 % 89 % 0 % 998,8 hPa 0,0 l/m 1,1 km/h (1 Bft) 0,00 h 0,80 h 2,5 km/h (1 Bft)
18.12.2010 18:00 7,9 C -5,4 C 0,0 UV-I 0,0 C 44 % 89 % 0 % 998,6 hPa 0,0 l/m 3,2 km/h (1 Bft) 0,00 h 1,00 h 4,7 km/h (1 Bft)
18.12.2010 19:00 7,7 C -5,4 C 0,0 UV-I 0,0 C 44 % 89 % 0 % 998,5 hPa 0,0 l/m 3,6 km/h (1 Bft) 0,00 h 0,90 h 6,0 km/h (2 Bft)
18.12.2010 20:00 7,7 C -4,6 C 0,0 UV-I 0,0 C 44 % 90 % 0 % 998,0 hPa 0,0 l/m 5,1 km/h (1 Bft) 0,00 h 0,00 h 8,0 km/h (2 Bft)
18.12.2010 21:00 7,8 C -4,0 C 0,0 UV-I 0,0 C 44 % 90 % 0 % 997,6 hPa 0,0 l/m 5,1 km/h (1 Bft) 0,00 h 0,00 h 6,5 km/h (2 Bft)
18.12.2010 22:00 8,0 C -3,6 C 0,0 UV-I 0,0 C 45 % 91 % 0 % 997,0 hPa 0,0 l/m 5,3 km/h (1 Bft) 0,00 h 0,00 h 6,8 km/h (2 Bft)
18.12.2010 23:00 8,0 C -3,0 C 0,0 UV-I 0,0 C 46 % 92 % 0 % 996,7 hPa 0,0 l/m 5,6 km/h (1 Bft) 0,00 h 0,00 h 7,3 km/h (2 Bft)
19.12.2010 00:00 8,2 C -2,6 C 0,0 UV-I 0,0 C 46 % 93 % 0 % 995,3 hPa 0,0 l/m 4,1 km/h (1 Bft) 0,00 h 0,00 h 5,9 km/h (2 Bft)
19.12.2010 01:00 8,2 C -2,4 C 0,0 UV-I 0,0 C 47 % 93 % 0 % 994,5 hPa 0,0 l/m 6,1 km/h (2 Bft) 0,00 h 0,00 h 7,3 km/h (2 Bft)
19.12.2010 02:00 8,3 C -2,3 C 0,0 UV-I 0,0 C 47 % 93 % 0 % 993,9 hPa 0,0 l/m 6,7 km/h (2 Bft) 0,00 h 0,00 h 6,9 km/h (2 Bft)
19.12.2010 03:00 8,4 C -2,1 C 0,0 UV-I 0,0 C 48 % 94 % 0 % 993,9 hPa 0,0 l/m 4,8 km/h (1 Bft) 0,00 h 0,00 h 5,0 km/h (1 Bft)
19.12.2010 04:00 8,3 C -1,7 C 0,0 UV-I 0,0 C 48 % 94 % 0 % 994,2 hPa 0,0 l/m 2,3 km/h (1 Bft) 0,00 h 0,00 h 3,0 km/h (1 Bft)
19.12.2010 05:00 8,4 C -1,2 C 0,0 UV-I 0,0 C 48 % 94 % 0 % 994,7 hPa 0,0 l/m 1,8 km/h (1 Bft) 0,00 h 0,00 h 3,1 km/h (1 Bft)
19.12.2010 06:00 8,5 C -0,7 C 0,0 UV-I 0,0 C 49 % 93 % 0 % 995,4 hPa 0,0 l/m 2,1 km/h (1 Bft) 0,00 h 0,00 h 2,6 km/h (1 Bft)
19.12.2010 07:00 8,5 C -0,8 C 0,0 UV-I 0,0 C 49 % 93 % 0 % 996,1 hPa 0,0 l/m 0,5 km/h (0 Bft) 0,00 h 0,00 h 0,5 km/h (0 Bft)
19.12.2010 08:00 8,6 C -1,3 C 0,0 UV-I 0,0 C 49 % 93 % 0 % 996,7 hPa 0,0 l/m 0,0 km/h (0 Bft) 0,00 h 0,00 h 0,0 km/h (0 Bft)
19.12.2010 09:00 8,7 C -1,5 C 0,0 UV-I 0,0 C 49 % 93 % 0 % 996,9 hPa 0,0 l/m 0,0 km/h (0 Bft) 0,00 h 0,00 h 0,2 km/h (0 Bft)
19.12.2010 10:00 8,8 C -0,8 C 0,0 UV-I 0,0 C 49 % 94 % 0 % 997,3 hPa 0,0 l/m 0,1 km/h (0 Bft) 0,00 h 0,00 h 0,3 km/h (0 Bft)
19.12.2010 11:00 9,0 C -0,1 C 0,0 UV-I 0,0 C 49 % 93 % 0 % 997,1 hPa 0,0 l/m 0,5 km/h (0 Bft) 0,00 h 0,00 h 0,9 km/h (0 Bft)
19.12.2010 12:00 9,1 C 0,2 C 0,0 UV-I 0,0 C 49 % 93 % 0 % 996,4 hPa 0,0 l/m 1,9 km/h (1 Bft) 0,00 h 0,00 h 2,5 km/h (1 Bft)
19.12.2010 13:00 9,2 C 0,4 C 0,0 UV-I 0,0 C 50 % 93 % 0 % 995,4 hPa 0,0 l/m 1,3 km/h (1 Bft) 0,00 h 0,00 h 1,5 km/h (1 Bft)
19.12.2010 14:00 9,3 C 0,0 C 0,0 UV-I 0,0 C 49 % 92 % 0 % 994,1 hPa 0,0 l/m 2,2 km/h (1 Bft) 0,00 h 0,00 h 3,1 km/h (1 Bft)
19.12.2010 15:00 9,2 C -0,4 C 0,0 UV-I 0,0 C 50 % 92 % 0 % 993,5 hPa 0,0 l/m 2,7 km/h (1 Bft) 0,00 h 0,00 h 3,0 km/h (1 Bft)
19.12.2010 16:00 9,1 C -0,5 C 0,0 UV-I 0,0 C 50 % 93 % 0 % 992,3 hPa 0,0 l/m 0,4 km/h (0 Bft) 0,00 h 0,00 h 0,7 km/h (0 Bft)
19.12.2010 17:00 9,1 C -0,5 C 0,0 UV-I 0,0 C 50 % 94 % 0 % 990,9 hPa 0,0 l/m 0,0 km/h (0 Bft) 0,00 h 0,00 h 0,0 km/h (0 Bft)
19.12.2010 18:00 9,2 C -0,4 C 0,0 UV-I 0,0 C 51 % 94 % 0 % 989,2 hPa 0,0 l/m 0,0 km/h (0 Bft) 0,00 h 0,00 h 0,0 km/h (0 Bft)
19.12.2010 19:00 9,2 C -0,4 C 0,0 UV-I 0,0 C 51 % 94 % 0 % 987,9 hPa 0,0 l/m 0,0 km/h (0 Bft) 0,00 h 0,00 h 0,0 km/h (0 Bft)
19.12.2010 20:00 9,3 C -0,4 C 0,0 UV-I 0,0 C 51 % 94 % 0 % 987,4 hPa 0,0 l/m 0,0 km/h (0 Bft) 0,00 h 0,00 h 0,0 km/h (0 Bft)
19.12.2010 21:00 9,4 C -0,5 C 0,0 UV-I 0,0 C 51 % 94 % 0 % 987,5 hPa 0,0 l/m 0,0 km/h (0 Bft) 0,00 h 0,00 h 0,0 km/h (0 Bft)
19.12.2010 22:00 9,3 C -1,3 C 0,0 UV-I 0,0 C 51 % 94 % 0 % 988,3 hPa 0,0 l/m 0,0 km/h (0 Bft) 0,00 h 0,00 h 0,0 km/h (0 Bft)
19.12.2010 23:00 9,2 C -1,8 C 0,0 UV-I 0,0 C 50 % 94 % 0 % 989,6 hPa 0,0 l/m 3,3 km/h (1 Bft) 0,00 h 0,00 h 5,4 km/h (1 Bft)
Min-Datum _ 17.12.10 18.12.10 13.12.10 13.12.10 13.12.10 13.12.10 13.12.10 19.12.10 - 13.12.10 - - 13.12.10
_ Min-Zeit 20:02 03:24 00:00 00:00 14:52 00:00 00:00 20:26 - 03:10 - - 02:06
Minimum _ 7,2 C -7,4 C 0,0 UV-I 0,0 C 42 % 74 % 0 % 987,2 hPa - 0,0 km/h (0 Bft) - - 0,0 km/h (0 Bft)
Max-Datum _ 15.12.10 16.12.10 15.12.10 14.12.10 16.12.10 16.12.10 14.12.10 14.12.10 16.12.10 16.12.10 14.12.10 13.12.10 16.12.10
_ Max-Zeit 14:40 17:50 13:44 11:50 18:16 19:38 11:44 22:26 15:04 19:24 09:50 00:10 17:22
Maximum _ 11,1 C 2,0 C 0,4 UV-I 5,2 C 59 % 95 % 100 % 1033,1 hPa 1,0 l/m 23,7 km/h
S (4 Bft)
0,03 h 0,03 h 38,9 km/h
W-SW (6 Bft)
Durchschnitt _ 9,0 C -2,1 C 0,0 UV-I 0,0 C 47 % 90 % 1 % 1011,0 hPa #4,8 l/m 3,3 km/h (1 Bft) #56 min. #68:40 h 3,8 km/h (1 Bft)
© 2012 W. Hausmann